createdAt,value
2023-02-01T00:01:12.794Z,52.50
2023-02-01T00:03:41.701Z,51.80
2023-02-01T00:06:11.247Z,51.80
2023-02-01T00:08:41.702Z,51.80
2023-02-01T00:11:14.241Z,51.40
2023-02-01T00:13:44.834Z,51.80
2023-02-01T00:16:17.646Z,52.30
2023-02-01T00:18:47.150Z,51.70
2023-02-01T00:21:18.538Z,51.60
2023-02-01T00:23:49.208Z,50.50
2023-02-01T00:26:21.582Z,50.60
2023-02-01T00:28:50.351Z,49.90
2023-02-01T00:31:19.142Z,50.00
2023-02-01T00:33:51.115Z,50.00
2023-02-01T00:36:22.402Z,49.00
2023-02-01T00:38:55.542Z,49.40
2023-02-01T00:41:25.003Z,49.20
2023-02-01T00:43:57.228Z,48.60
2023-02-01T00:46:28.339Z,48.00
2023-02-01T00:49:02.427Z,48.20
2023-02-01T00:51:36.390Z,48.40
2023-02-01T00:54:20.139Z,47.90
2023-02-01T00:56:57.989Z,48.10
2023-02-01T00:59:30.584Z,48.20
2023-02-01T01:02:02.067Z,48.50
2023-02-01T01:04:33.481Z,48.80
2023-02-01T01:07:06.783Z,49.90
2023-02-01T01:09:37.411Z,50.30
2023-02-01T01:12:10.109Z,50.00
2023-02-01T01:14:39.412Z,49.40
2023-02-01T01:17:10.467Z,49.60
2023-02-01T01:19:41.486Z,49.90
2023-02-01T01:22:12.742Z,50.80
2023-02-01T01:24:47.865Z,51.30
2023-02-01T01:27:16.818Z,51.00
2023-02-01T01:29:48.215Z,51.90
2023-02-01T01:32:18.753Z,52.20
2023-02-01T01:34:51.209Z,52.60
2023-02-01T01:37:19.932Z,53.00
2023-02-01T01:39:50.193Z,53.30
2023-02-01T01:42:19.201Z,53.10
2023-02-01T01:45:06.774Z,53.50
2023-02-01T01:47:44.688Z,52.90
2023-02-01T01:50:21.424Z,51.70
2023-02-01T01:52:54.277Z,50.80
2023-02-01T01:55:28.216Z,50.60
2023-02-01T01:58:02.279Z,51.40
2023-02-01T02:00:31.141Z,52.10
2023-02-01T02:03:10.826Z,52.30
2023-02-01T02:05:44.061Z,52.20
2023-02-01T02:08:14.021Z,51.20
2023-02-01T02:11:03.771Z,50.70
2023-02-01T02:13:40.929Z,50.60
2023-02-01T02:16:43.851Z,50.10
2023-02-01T02:20:11.764Z,50.00
2023-02-01T02:23:21.501Z,49.80
2023-02-01T02:26:30.321Z,48.90
2023-02-01T02:29:53.333Z,49.70
2023-02-01T02:33:08.276Z,49.40
2023-02-01T02:35:50.971Z,49.40
2023-02-01T02:38:36.580Z,47.70
2023-02-01T02:41:39.049Z,48.30
2023-02-01T02:44:38.744Z,48.60
2023-02-01T02:47:28.803Z,48.10
2023-02-01T02:50:29.863Z,48.80
2023-02-01T02:53:33.991Z,48.30
2023-02-01T02:56:22.580Z,48.20
2023-02-01T02:59:29.570Z,47.00
2023-02-01T03:02:16.235Z,47.60
2023-02-01T03:04:48.192Z,46.90
2023-02-01T03:08:05.577Z,46.20
2023-02-01T03:10:47.364Z,45.90
2023-02-01T03:13:28.854Z,43.80
2023-02-01T03:16:14.529Z,45.30
2023-02-01T03:19:03.564Z,46.70
2023-02-01T03:21:38.502Z,46.60
2023-02-01T03:24:14.841Z,46.50
2023-02-01T03:26:53.576Z,45.20
2023-02-01T03:29:40.270Z,45.40
2023-02-01T03:32:10.534Z,44.80
2023-02-01T03:34:40.023Z,44.70
2023-02-01T03:37:16.818Z,45.00
2023-02-01T03:39:53.969Z,45.40
2023-02-01T03:42:35.957Z,45.90
2023-02-01T03:45:13.167Z,46.00
2023-02-01T03:47:47.567Z,46.80
2023-02-01T03:50:23.203Z,46.90
2023-02-01T03:53:01.060Z,46.60
2023-02-01T03:55:34.310Z,46.10
2023-02-01T03:58:14.076Z,45.00
2023-02-01T04:00:46.196Z,44.80
2023-02-01T04:03:15.036Z,45.30
2023-02-01T04:05:44.976Z,45.20
2023-02-01T04:08:13.777Z,46.40
2023-02-01T04:10:43.945Z,46.60
2023-02-01T04:13:16.448Z,46.50
2023-02-01T04:15:46.801Z,46.90
2023-02-01T04:18:19.355Z,47.00
2023-02-01T04:20:48.098Z,46.90
2023-02-01T04:23:17.549Z,46.60
2023-02-01T04:25:48.366Z,46.70
2023-02-01T04:28:18.673Z,46.40
2023-02-01T04:30:48.775Z,46.20
2023-02-01T04:33:17.372Z,45.90
2023-02-01T04:35:46.168Z,46.60
2023-02-01T04:38:14.843Z,46.60
2023-02-01T04:40:43.523Z,47.70
2023-02-01T04:43:12.209Z,48.40
2023-02-01T04:45:42.549Z,48.30
2023-02-01T04:48:11.154Z,48.60
2023-02-01T04:50:39.887Z,47.90
2023-02-01T04:53:08.497Z,47.60
2023-02-01T04:55:37.359Z,45.50
2023-02-01T04:58:06.072Z,45.30
2023-02-01T05:00:35.033Z,45.10
2023-02-01T05:03:05.470Z,45.30
2023-02-01T05:05:34.368Z,45.80
2023-02-01T05:08:03.061Z,46.20
2023-02-01T05:10:31.755Z,47.60
2023-02-01T05:13:17.882Z,47.40
2023-02-01T05:15:47.296Z,47.10
2023-02-01T05:18:17.400Z,46.90
2023-02-01T05:20:46.400Z,46.10
2023-02-01T05:23:14.973Z,46.90
2023-02-01T05:25:43.643Z,46.20
2023-02-01T05:28:12.459Z,45.60
2023-02-01T05:30:42.431Z,46.70
2023-02-01T05:33:11.147Z,47.50
2023-02-01T05:35:41.288Z,48.00
2023-02-01T05:38:10.066Z,47.90
2023-02-01T05:40:38.925Z,47.40
2023-02-01T05:43:07.549Z,47.10
2023-02-01T05:45:36.190Z,47.00
2023-02-01T05:48:05.271Z,46.80
2023-02-01T05:50:34.005Z,46.20
2023-02-01T05:53:04.052Z,46.10
2023-02-01T05:55:32.764Z,46.50
2023-02-01T05:58:01.406Z,46.50
2023-02-01T06:00:30.209Z,46.20
2023-02-01T06:02:59.034Z,45.90
2023-02-01T06:05:27.853Z,45.50
2023-02-01T06:07:56.576Z,45.40
2023-02-01T06:10:26.876Z,44.70
2023-02-01T06:12:55.542Z,45.00
2023-02-01T06:15:24.347Z,45.40
2023-02-01T06:17:53.144Z,45.80
2023-02-01T06:20:22.335Z,46.30
2023-02-01T06:22:51.384Z,47.20
2023-02-01T06:25:20.389Z,47.50
2023-02-01T06:27:50.566Z,47.00
2023-02-01T06:30:20.122Z,47.40
2023-02-01T06:32:55.179Z,47.10
2023-02-01T06:35:23.950Z,47.10
2023-02-01T06:37:53.425Z,47.10
2023-02-01T06:40:22.688Z,46.70
2023-02-01T06:42:53.178Z,46.10
2023-02-01T06:45:21.980Z,46.10
2023-02-01T06:47:50.838Z,46.20
2023-02-01T06:50:19.872Z,46.30
2023-02-01T06:52:48.638Z,45.50
2023-02-01T06:57:04.756Z,45.30
2023-02-01T06:58:36.107Z,45.90
2023-02-01T07:01:14.702Z,45.30
2023-02-01T07:03:56.839Z,45.50
2023-02-01T07:06:25.629Z,45.80
2023-02-01T07:12:57.056Z,47.00
2023-02-01T07:15:39.374Z,46.30
2023-02-01T07:18:32.829Z,46.00
2023-02-01T07:21:20.491Z,46.30
2023-02-01T07:23:49.417Z,46.70
2023-02-01T07:26:30.290Z,46.40
2023-02-01T07:29:02.804Z,47.40
2023-02-01T07:31:37.070Z,47.60
2023-02-01T07:34:42.615Z,47.70
2023-02-01T07:37:38.029Z,47.80
2023-02-01T07:40:09.866Z,47.90
2023-02-01T07:44:05.968Z,48.40
2023-02-01T07:46:48.944Z,49.00
2023-02-01T07:49:27.273Z,48.00
2023-02-01T07:51:59.380Z,47.50
2023-02-01T07:54:42.404Z,48.40
2023-02-01T07:57:28.514Z,48.80
2023-02-01T08:00:38.197Z,48.90
2023-02-01T08:03:10.423Z,49.00
2023-02-01T08:06:03.747Z,49.80
2023-02-01T08:08:32.654Z,50.60
2023-02-01T08:11:04.832Z,51.30
2023-02-01T08:13:35.249Z,52.40
2023-02-01T08:16:06.803Z,53.60
2023-02-01T08:18:56.626Z,53.80
2023-02-01T08:21:42.310Z,54.00
2023-02-01T08:24:58.883Z,54.00
2023-02-01T08:27:43.973Z,54.40
2023-02-01T08:30:29.015Z,54.60
2023-02-01T08:32:59.235Z,53.70
2023-02-01T08:35:42.428Z,53.80
2023-02-01T08:38:12.612Z,54.00
2023-02-01T08:40:42.532Z,53.50
2023-02-01T08:51:48.773Z,53.30
2023-02-01T09:32:47.254Z,49.90
2023-02-01T09:35:42.029Z,49.40
2023-02-01T10:04:04.123Z,42.70
2023-02-01T10:07:15.596Z,42.70
2023-02-01T10:10:25.390Z,42.20
2023-02-01T10:13:34.368Z,42.80
2023-02-01T10:16:22.710Z,44.60
2023-02-01T10:19:09.108Z,45.70
2023-02-01T10:22:01.959Z,46.90
2023-02-01T10:33:17.823Z,47.70
2023-02-01T10:35:56.568Z,47.40
2023-02-01T10:38:31.468Z,48.50
2023-02-01T10:41:15.984Z,49.00
2023-02-01T10:44:01.839Z,48.70
2023-02-01T10:46:36.631Z,49.10
2023-02-01T10:49:16.635Z,49.40
2023-02-01T10:52:48.783Z,48.20
2023-02-01T10:55:36.707Z,47.80
2023-02-01T10:58:47.983Z,47.80
2023-02-01T11:01:27.661Z,47.80
2023-02-01T11:04:03.050Z,47.70
2023-02-01T11:06:37.607Z,46.30
2023-02-01T11:09:28.330Z,45.00
2023-02-01T11:12:01.651Z,44.90
2023-02-01T11:14:40.518Z,45.30
2023-02-01T11:17:30.847Z,45.00
2023-02-01T11:20:02.572Z,43.40
2023-02-01T11:22:32.064Z,42.90
2023-02-01T11:25:13.691Z,42.70
2023-02-01T11:27:54.830Z,43.10
2023-02-01T11:30:35.265Z,42.10
2023-02-01T11:33:07.600Z,41.80
2023-02-01T11:35:41.767Z,40.40
2023-02-01T11:38:22.824Z,40.50
2023-02-01T11:40:53.311Z,41.10
2023-02-01T11:43:29.331Z,41.90
2023-02-01T11:46:06.953Z,41.80
2023-02-01T11:48:36.919Z,40.70
2023-02-01T11:51:28.525Z,40.20
2023-02-01T11:54:41.919Z,40.90
2023-02-01T11:57:37.808Z,40.00
2023-02-01T12:00:44.032Z,40.10
2023-02-01T12:04:02.144Z,40.50
2023-02-01T12:06:47.833Z,40.80
2023-02-01T12:09:47.871Z,41.60
2023-02-01T12:12:30.367Z,40.90
2023-02-01T12:15:24.216Z,39.80
2023-02-01T12:18:49.879Z,40.00
2023-02-01T12:21:45.966Z,39.90
2023-02-01T12:24:55.861Z,39.20
2023-02-01T12:28:11.961Z,38.10
2023-02-01T12:31:14.823Z,38.20
2023-02-01T12:34:06.549Z,38.20
2023-02-01T12:36:49.065Z,37.60
2023-02-01T12:39:32.813Z,38.20
2023-02-01T12:42:15.536Z,37.50
2023-02-01T12:45:24.069Z,38.60
2023-02-01T12:48:02.454Z,37.90
2023-02-01T12:50:44.450Z,38.60
2023-02-01T12:53:24.992Z,38.80
2023-02-01T12:55:58.200Z,38.90
2023-02-01T12:58:36.420Z,39.20
2023-02-01T13:01:13.378Z,38.50
2023-02-01T13:04:09.037Z,38.90
2023-02-01T13:06:56.064Z,38.80
2023-02-01T13:09:30.418Z,37.70
2023-02-01T13:12:31.185Z,37.70
2023-02-01T13:15:31.800Z,38.80
2023-02-01T13:18:34.831Z,38.60
2023-02-01T13:21:13.978Z,36.60
2023-02-01T13:23:51.048Z,36.70
2023-02-01T13:26:34.102Z,37.30
2023-02-01T13:29:09.051Z,39.00
2023-02-01T13:33:50.330Z,39.00
2023-02-01T13:35:48.411Z,39.10
2023-02-01T13:39:02.274Z,38.90
2023-02-01T13:42:50.552Z,38.50
2023-02-01T13:45:25.995Z,37.80
2023-02-01T13:48:02.478Z,38.10
2023-02-01T13:50:38.808Z,37.80
2023-02-01T13:53:19.976Z,38.90
2023-02-01T13:55:57.181Z,38.60
2023-02-01T13:58:36.011Z,37.30
2023-02-01T14:01:47.730Z,38.00
2023-02-01T14:04:50.024Z,37.40
2023-02-01T14:07:24.263Z,36.70
2023-02-01T14:09:54.794Z,38.10
2023-02-01T14:12:49.606Z,37.60
2023-02-01T14:15:30.572Z,39.30
2023-02-01T14:18:04.606Z,40.00
2023-02-01T14:20:44.914Z,41.10
2023-02-01T14:23:32.814Z,41.40
2023-02-01T14:26:17.128Z,41.00
2023-02-01T14:29:07.005Z,40.40
2023-02-01T14:32:03.519Z,40.40
2023-02-01T14:34:53.573Z,39.10
2023-02-01T14:37:31.574Z,37.90
2023-02-01T14:40:05.359Z,38.10
2023-02-01T14:42:45.762Z,39.00
2023-02-01T14:45:54.735Z,38.70
2023-02-01T14:48:49.707Z,38.10
2023-02-01T14:51:21.722Z,36.90
2023-02-01T14:53:52.481Z,36.90
2023-02-01T14:56:23.271Z,36.90
2023-02-01T14:59:00.555Z,37.80
2023-02-01T15:01:32.904Z,38.00
2023-02-01T15:04:07.904Z,38.90
2023-02-01T15:06:45.606Z,38.60
2023-02-01T15:09:21.048Z,40.00
2023-02-01T15:12:22.662Z,39.80
2023-02-01T16:53:18.924Z,38.60
2023-02-01T16:55:54.640Z,38.50
2023-02-01T17:19:39.615Z,38.50
2023-02-01T18:26:22.065Z,38.90
2023-02-01T19:25:02.291Z,39.30
2023-02-01T19:37:18.874Z,39.40
2023-02-01T19:42:26.045Z,39.20
2023-02-01T20:11:04.377Z,40.30
2023-02-01T20:14:20.938Z,40.30
2023-02-01T20:29:33.609Z,39.20
2023-02-01T20:33:09.968Z,39.50
2023-02-01T21:06:59.774Z,41.10
2023-02-01T21:14:13.261Z,41.30
2023-02-01T21:18:28.259Z,41.00
2023-02-01T21:20:39.829Z,40.70
2023-02-01T21:32:02.299Z,41.40
2023-02-01T21:39:39.866Z,42.40
2023-02-01T22:57:14.448Z,50.60
2023-02-01T22:59:53.817Z,51.70
2023-02-01T23:02:30.175Z,51.90
2023-02-01T23:05:09.232Z,51.80
2023-02-01T23:07:46.145Z,52.80
2023-02-01T23:10:36.438Z,52.90
2023-02-01T23:13:13.243Z,52.80
2023-02-01T23:16:13.791Z,52.30
2023-02-01T23:18:43.611Z,53.60
2023-02-01T23:21:19.268Z,54.20
2023-02-01T23:23:56.778Z,54.60
2023-02-01T23:26:30.985Z,54.70
2023-02-01T23:29:03.238Z,54.60
2023-02-01T23:31:34.963Z,54.90
2023-02-01T23:34:05.550Z,54.80
2023-02-01T23:36:41.965Z,54.70
2023-02-01T23:39:12.185Z,54.70
2023-02-01T23:41:45.349Z,55.00
2023-02-01T23:44:15.748Z,54.90
2023-02-01T23:46:47.603Z,55.40
2023-02-01T23:49:19.764Z,55.60
2023-02-01T23:51:52.835Z,55.80
2023-02-01T23:54:23.823Z,55.40
2023-02-01T23:56:52.953Z,55.60
2023-02-01T23:59:26.144Z,56.10
